createdAt,value
2019-05-19T00:00:24.462Z,13.29
2019-05-19T00:01:24.414Z,13.15
2019-05-19T00:02:24.314Z,13.14
2019-05-19T00:03:24.236Z,13.09
2019-05-19T00:04:24.159Z,13.03
2019-05-19T00:05:24.086Z,13.07
2019-05-19T00:06:24.010Z,13.14
2019-05-19T00:07:23.935Z,13.07
2019-05-19T00:08:23.859Z,13.15
2019-05-19T00:09:23.784Z,13.09
2019-05-19T00:10:23.834Z,13.09
2019-05-19T00:11:23.633Z,13.17
2019-05-19T00:12:23.562Z,13.17
2019-05-19T00:13:23.482Z,13.21
2019-05-19T00:14:23.407Z,13.17
2019-05-19T00:15:23.331Z,13.03
2019-05-19T00:16:23.256Z,13.06
2019-05-19T00:17:23.182Z,13.04
2019-05-19T00:18:23.106Z,13.03
2019-05-19T00:19:26.605Z,13.00
2019-05-19T00:20:22.981Z,13.06
2019-05-19T00:21:22.879Z,13.00
2019-05-19T00:22:22.805Z,13.03
2019-05-19T00:23:22.731Z,13.10
2019-05-19T00:24:22.655Z,13.09
2019-05-19T00:25:22.583Z,13.06
2019-05-19T00:26:22.504Z,12.97
2019-05-19T00:27:22.458Z,13.06
2019-05-19T00:28:22.355Z,12.97
2019-05-19T00:29:22.277Z,13.06
2019-05-19T00:30:22.244Z,13.02
2019-05-19T00:31:22.131Z,13.02
2019-05-19T00:32:22.053Z,12.96
2019-05-19T00:33:21.978Z,12.89
2019-05-19T00:34:21.901Z,12.92
2019-05-19T00:35:21.858Z,12.88
2019-05-19T00:36:21.749Z,12.85
2019-05-19T00:37:21.674Z,12.81
2019-05-19T00:38:21.626Z,12.92
2019-05-19T00:39:21.531Z,12.89
2019-05-19T00:40:21.548Z,12.81
2019-05-19T00:41:21.381Z,12.78
2019-05-19T00:42:21.302Z,12.82
2019-05-19T00:43:21.226Z,12.73
2019-05-19T00:44:21.147Z,12.74
2019-05-19T00:45:21.172Z,12.74
2019-05-19T00:46:20.996Z,12.77
2019-05-19T00:47:20.922Z,12.84
2019-05-19T00:48:20.847Z,12.78
2019-05-19T00:49:20.770Z,12.85
2019-05-19T00:50:20.695Z,12.78
2019-05-19T00:51:20.620Z,12.74
2019-05-19T00:52:20.546Z,12.74
2019-05-19T00:53:20.472Z,12.74
2019-05-19T00:54:20.393Z,12.71
2019-05-19T00:55:20.317Z,12.77
2019-05-19T00:56:20.241Z,12.74
2019-05-19T00:57:20.165Z,12.70
2019-05-19T00:58:20.090Z,12.77
2019-05-19T00:59:20.016Z,12.74
2019-05-19T01:00:19.939Z,12.70
2019-05-19T01:01:19.980Z,12.71
2019-05-19T01:02:19.792Z,12.86
2019-05-19T01:03:19.714Z,12.73
2019-05-19T01:04:19.637Z,12.85
2019-05-19T01:05:20.822Z,12.79
2019-05-19T01:06:19.487Z,12.79
2019-05-19T01:07:19.413Z,12.78
2019-05-19T01:08:19.338Z,12.77
2019-05-19T01:09:19.260Z,12.85
2019-05-19T01:10:19.184Z,12.79
2019-05-19T01:11:19.110Z,12.89
2019-05-19T01:12:19.034Z,12.78
2019-05-19T01:13:18.958Z,12.81
2019-05-19T01:14:18.887Z,12.78
2019-05-19T01:15:21.428Z,12.91
2019-05-19T01:17:11.227Z,12.88
2019-05-19T01:18:11.147Z,12.91
2019-05-19T01:19:11.070Z,12.97
2019-05-19T01:20:10.994Z,12.86
2019-05-19T01:21:10.920Z,12.89
2019-05-19T01:22:10.844Z,12.88
2019-05-19T01:23:10.769Z,12.79
2019-05-19T01:24:10.698Z,12.86
2019-05-19T01:25:10.622Z,12.96
2019-05-19T01:26:10.542Z,12.88
2019-05-19T01:27:10.801Z,12.96
2019-05-19T01:28:10.392Z,12.92
2019-05-19T01:29:10.315Z,12.94
2019-05-19T01:30:10.240Z,12.96
2019-05-19T01:31:10.164Z,12.92
2019-05-19T01:32:10.091Z,12.86
2019-05-19T01:33:10.011Z,12.91
2019-05-19T01:34:09.937Z,12.91
2019-05-19T01:35:09.863Z,12.88
2019-05-19T01:36:09.787Z,12.88
2019-05-19T01:37:09.709Z,12.84
2019-05-19T01:38:09.635Z,12.82
2019-05-19T01:39:09.584Z,12.86
2019-05-19T01:40:09.493Z,12.91
2019-05-19T01:41:09.426Z,12.89
2019-05-19T01:42:09.333Z,12.96
2019-05-19T01:43:09.256Z,12.96
2019-05-19T01:44:09.181Z,12.89
2019-05-19T01:45:09.110Z,12.81
2019-05-19T01:46:09.029Z,12.82
2019-05-19T01:47:08.956Z,12.78
2019-05-19T01:48:08.884Z,12.79
2019-05-19T01:49:08.802Z,12.86
2019-05-19T01:50:17.374Z,12.77
2019-05-19T01:51:08.652Z,12.86
2019-05-19T01:52:08.575Z,12.82
2019-05-19T01:53:08.498Z,12.69
2019-05-19T01:54:08.761Z,12.81
2019-05-19T01:55:08.347Z,12.84
2019-05-19T01:56:08.404Z,12.79
2019-05-19T01:57:08.211Z,12.78
2019-05-19T01:58:08.119Z,12.89
2019-05-19T01:59:08.045Z,12.85
2019-05-19T02:00:07.977Z,12.82
2019-05-19T02:01:07.893Z,12.81
2019-05-19T02:02:07.919Z,12.81
2019-05-19T02:03:07.740Z,12.79
2019-05-19T02:04:07.666Z,12.74
2019-05-19T02:05:07.590Z,12.74
2019-05-19T02:06:07.513Z,12.70
2019-05-19T02:07:07.456Z,12.77
2019-05-19T02:08:07.361Z,12.69
2019-05-19T02:09:07.285Z,12.69
2019-05-19T02:10:07.211Z,12.74
2019-05-19T02:11:07.149Z,12.78
2019-05-19T02:12:07.059Z,12.79
2019-05-19T02:13:06.982Z,12.64
2019-05-19T02:14:06.908Z,12.74
2019-05-19T02:15:06.832Z,12.71
2019-05-19T02:16:06.756Z,12.66
2019-05-19T02:17:06.705Z,12.67
2019-05-19T02:18:06.602Z,12.77
2019-05-19T02:19:06.531Z,12.67
2019-05-19T02:20:06.452Z,12.55
2019-05-19T02:21:06.377Z,12.59
2019-05-19T02:22:06.300Z,12.59
2019-05-19T02:23:06.224Z,12.59
2019-05-19T02:24:06.148Z,12.73
2019-05-19T02:25:06.079Z,12.67
2019-05-19T02:26:05.997Z,12.70
2019-05-19T02:27:05.919Z,12.73
2019-05-19T02:28:05.846Z,12.78
2019-05-19T02:29:05.769Z,12.86
2019-05-19T02:30:05.695Z,12.88
2019-05-19T02:31:05.618Z,12.78
2019-05-19T02:32:05.542Z,12.79
2019-05-19T02:33:05.465Z,12.66
2019-05-19T02:34:05.401Z,12.66
2019-05-19T02:35:05.316Z,12.71
2019-05-19T02:36:05.239Z,12.59
2019-05-19T02:37:05.168Z,12.61
2019-05-19T02:38:05.088Z,12.60
2019-05-19T02:39:05.013Z,12.69
2019-05-19T02:40:04.935Z,12.61
2019-05-19T02:41:04.864Z,12.64
2019-05-19T02:42:59.969Z,12.74
2019-05-19T02:43:57.200Z,12.74
2019-05-19T02:44:57.124Z,12.74
2019-05-19T02:45:57.051Z,12.70
2019-05-19T02:46:56.969Z,12.64
2019-05-19T02:47:59.515Z,12.77
2019-05-19T02:49:54.315Z,12.73
2019-05-19T02:50:54.235Z,12.64
2019-05-19T02:51:54.500Z,12.64
2019-05-19T02:52:54.083Z,12.55
2019-05-19T02:53:54.007Z,12.59
2019-05-19T02:54:53.932Z,12.59
2019-05-19T02:55:53.869Z,12.61
2019-05-19T02:56:53.783Z,12.63
2019-05-19T02:57:53.703Z,12.66
2019-05-19T02:58:53.627Z,12.64
2019-05-19T02:59:53.555Z,12.55
2019-05-19T03:00:56.095Z,12.63
2019-05-19T03:01:53.400Z,12.45
2019-05-19T03:02:53.323Z,12.53
2019-05-19T03:03:53.244Z,12.46
2019-05-19T03:04:53.175Z,12.49
2019-05-19T03:05:53.130Z,12.51
2019-05-19T03:06:53.019Z,12.51
2019-05-19T03:07:52.940Z,12.52
2019-05-19T03:08:52.875Z,12.45
2019-05-19T03:09:52.788Z,12.53
2019-05-19T03:10:52.713Z,12.55
2019-05-19T03:11:52.637Z,12.46
2019-05-19T03:12:52.561Z,12.46
2019-05-19T03:13:52.491Z,12.49
2019-05-19T03:14:52.409Z,12.44
2019-05-19T03:15:52.332Z,12.49
2019-05-19T03:16:52.256Z,12.51
2019-05-19T03:17:52.183Z,12.49
2019-05-19T03:18:52.103Z,12.41
2019-05-19T03:19:52.029Z,12.36
2019-05-19T03:21:09.425Z,12.37
2019-05-19T03:21:51.881Z,12.41
2019-05-19T03:22:51.801Z,12.42
2019-05-19T03:23:51.723Z,12.39
2019-05-19T03:24:51.648Z,12.41
2019-05-19T03:25:51.572Z,12.41
2019-05-19T03:26:51.596Z,12.51
2019-05-19T03:27:51.429Z,12.44
2019-05-19T03:28:51.344Z,12.49
2019-05-19T03:29:51.271Z,12.51
2019-05-19T03:30:51.206Z,12.51
2019-05-19T03:31:51.222Z,12.48
2019-05-19T03:32:51.038Z,12.59
2019-05-19T03:33:50.974Z,12.59
2019-05-19T03:34:50.895Z,12.59
2019-05-19T03:35:50.810Z,12.61
2019-05-19T03:36:50.737Z,12.59
2019-05-19T03:37:50.658Z,12.63
2019-05-19T03:38:50.631Z,12.55
2019-05-19T03:39:50.506Z,12.59
2019-05-19T03:40:50.434Z,12.61
2019-05-19T03:41:50.356Z,12.67
2019-05-19T03:42:50.289Z,12.64
2019-05-19T03:43:50.203Z,12.60
2019-05-19T03:44:50.125Z,12.61
2019-05-19T03:45:50.050Z,12.71
2019-05-19T03:46:49.974Z,12.74
2019-05-19T03:47:49.898Z,12.77
2019-05-19T03:48:49.821Z,12.71
2019-05-19T03:49:49.749Z,12.67
2019-05-19T03:50:49.669Z,12.77
2019-05-19T03:51:49.595Z,12.70
2019-05-19T03:52:49.518Z,12.73
2019-05-19T03:53:49.542Z,12.63
2019-05-19T03:54:49.367Z,12.79
2019-05-19T03:55:49.291Z,12.61
2019-05-19T03:56:49.220Z,12.66
2019-05-19T03:57:49.138Z,12.70
2019-05-19T03:58:49.061Z,12.77
2019-05-19T03:59:48.988Z,12.69
2019-05-19T04:00:48.916Z,12.66
2019-05-19T04:01:48.835Z,12.77
2019-05-19T04:02:48.759Z,12.74
2019-05-19T04:03:48.684Z,12.60
2019-05-19T04:04:48.610Z,12.70
2019-05-19T04:05:48.533Z,12.71
2019-05-19T04:06:48.457Z,12.66
2019-05-19T04:07:48.379Z,12.77
2019-05-19T04:08:48.307Z,12.74
2019-05-19T04:09:48.227Z,12.73
2019-05-19T04:10:48.158Z,12.69
2019-05-19T04:11:48.074Z,12.73
2019-05-19T04:12:48.001Z,12.74
2019-05-19T04:13:47.926Z,12.77
2019-05-19T04:14:47.850Z,12.78
2019-05-19T04:15:47.772Z,12.82
2019-05-19T04:16:47.698Z,12.85
2019-05-19T04:17:47.625Z,12.84
2019-05-19T04:18:47.545Z,12.85
2019-05-19T04:19:47.469Z,12.97
2019-05-19T04:20:47.407Z,12.91
2019-05-19T04:21:49.364Z,12.88
2019-05-19T04:22:47.241Z,12.91
2019-05-19T04:23:47.170Z,12.92
2019-05-19T04:24:47.160Z,12.88
2019-05-19T04:25:47.017Z,12.97
2019-05-19T04:26:46.940Z,12.89
2019-05-19T04:27:46.864Z,12.96
2019-05-19T04:28:46.789Z,12.82
2019-05-19T04:29:46.712Z,12.77
2019-05-19T04:30:46.638Z,12.82
2019-05-19T04:31:46.561Z,12.82
2019-05-19T04:32:46.485Z,12.81
2019-05-19T04:33:46.410Z,12.78
2019-05-19T04:34:46.335Z,12.81
2019-05-19T04:35:46.258Z,12.74
2019-05-19T04:36:46.183Z,12.85
2019-05-19T04:37:46.108Z,12.77
2019-05-19T04:38:46.035Z,12.78
2019-05-19T04:39:45.955Z,12.79
2019-05-19T04:40:45.880Z,12.81
2019-05-19T04:41:45.808Z,12.84
2019-05-19T04:42:45.731Z,12.77
2019-05-19T04:43:45.659Z,12.78
2019-05-19T04:44:45.578Z,12.82
2019-05-19T04:45:45.506Z,12.77
2019-05-19T04:46:45.428Z,12.79
2019-05-19T04:47:45.350Z,12.81
2019-05-19T04:48:45.276Z,12.84
2019-05-19T04:49:45.200Z,12.81
2019-05-19T04:50:45.124Z,12.82
2019-05-19T04:51:45.091Z,12.82
2019-05-19T04:52:44.972Z,12.78
2019-05-19T04:53:44.897Z,12.85
2019-05-19T04:54:44.829Z,12.88
2019-05-19T04:55:44.821Z,12.92
2019-05-19T04:56:44.671Z,12.85
2019-05-19T04:57:44.597Z,12.91
2019-05-19T04:58:44.523Z,12.94
2019-05-19T04:59:44.444Z,12.99
2019-05-19T05:00:44.472Z,12.96
2019-05-19T05:01:44.293Z,12.99
2019-05-19T05:02:44.217Z,12.96
2019-05-19T05:03:44.141Z,12.96
2019-05-19T05:04:44.065Z,13.03
2019-05-19T05:05:43.995Z,13.00
2019-05-19T05:06:43.919Z,12.99
2019-05-19T05:07:43.857Z,12.99
2019-05-19T05:08:43.765Z,13.07
2019-05-19T05:09:43.691Z,13.09
2019-05-19T05:10:43.614Z,13.07
2019-05-19T05:11:43.537Z,13.11
2019-05-19T05:12:43.464Z,13.14
2019-05-19T05:13:43.387Z,13.04
2019-05-19T05:14:43.312Z,13.10
2019-05-19T05:15:43.237Z,13.03
2019-05-19T05:16:43.165Z,13.07
2019-05-19T05:17:43.086Z,13.09
2019-05-19T05:18:43.010Z,13.28
2019-05-19T05:19:42.933Z,13.22
2019-05-19T05:20:42.859Z,13.18
2019-05-19T05:21:42.784Z,13.24
2019-05-19T05:22:42.709Z,13.22
2019-05-19T05:23:42.634Z,13.24
2019-05-19T05:24:42.587Z,13.38
2019-05-19T05:25:42.487Z,13.43
2019-05-19T05:26:42.412Z,13.33
2019-05-19T05:27:42.334Z,13.38
2019-05-19T05:28:42.258Z,13.36
2019-05-19T05:29:42.182Z,13.27
2019-05-19T05:30:42.109Z,13.29
2019-05-19T05:31:42.032Z,13.29
2019-05-19T05:32:41.959Z,13.21
2019-05-19T05:33:41.910Z,13.24
2019-05-19T05:34:41.806Z,13.15
2019-05-19T05:35:41.732Z,13.19
2019-05-19T05:36:41.657Z,13.14
2019-05-19T05:37:41.581Z,13.04
2019-05-19T05:38:41.507Z,13.15
2019-05-19T05:39:41.431Z,13.11
2019-05-19T05:40:41.355Z,13.25
2019-05-19T05:41:41.282Z,13.25
2019-05-19T05:42:41.208Z,13.36
2019-05-19T05:43:41.130Z,13.22
2019-05-19T05:44:41.054Z,13.25
2019-05-19T05:45:40.979Z,13.40
2019-05-19T05:46:40.912Z,13.44
2019-05-19T05:47:40.832Z,13.47
2019-05-19T05:48:40.756Z,13.43
2019-05-19T05:49:40.685Z,13.45
2019-05-19T05:50:40.604Z,13.53
2019-05-19T05:51:40.530Z,13.65
2019-05-19T05:52:40.455Z,13.65
2019-05-19T05:53:40.381Z,13.70
2019-05-19T05:54:40.305Z,13.87
2019-05-19T05:55:40.230Z,13.84
2019-05-19T05:56:40.153Z,13.92
2019-05-19T05:57:40.081Z,13.96
2019-05-19T05:58:40.006Z,14.05
2019-05-19T05:59:39.930Z,14.10
2019-05-19T06:00:39.859Z,14.10
2019-05-19T06:01:39.782Z,14.10
2019-05-19T06:02:39.710Z,14.20
2019-05-19T06:03:39.632Z,14.36
2019-05-19T06:04:39.557Z,14.44
2019-05-19T06:05:39.483Z,14.60
2019-05-19T06:06:39.409Z,14.60
2019-05-19T06:07:39.334Z,14.78
2019-05-19T06:08:39.265Z,14.83
2019-05-19T06:09:39.186Z,14.90
2019-05-19T06:10:39.111Z,15.12
2019-05-19T06:11:39.065Z,15.06
2019-05-19T06:12:38.962Z,15.13
2019-05-19T06:13:38.891Z,15.23
2019-05-19T06:14:38.815Z,15.26
2019-05-19T06:15:38.741Z,15.20
2019-05-19T06:16:38.667Z,15.39
2019-05-19T06:17:38.598Z,15.34
2019-05-19T06:18:38.520Z,15.35
2019-05-19T06:19:38.446Z,15.34
2019-05-19T06:20:38.374Z,15.34
2019-05-19T06:21:38.306Z,15.33
2019-05-19T06:22:54.378Z,15.41
2019-05-19T06:23:38.152Z,15.39
2019-05-19T06:24:38.080Z,15.38
2019-05-19T06:25:38.054Z,15.41
2019-05-19T06:26:37.933Z,15.28
2019-05-19T06:27:37.958Z,15.43
2019-05-19T06:28:37.785Z,15.46
2019-05-19T06:29:37.712Z,15.46
2019-05-19T06:30:37.641Z,15.41
2019-05-19T06:31:37.564Z,15.43
2019-05-19T06:32:37.494Z,15.52
2019-05-19T06:33:37.518Z,15.66
2019-05-19T06:34:37.345Z,15.64
2019-05-19T06:35:37.276Z,15.61
2019-05-19T06:36:37.200Z,15.43
2019-05-19T06:37:37.125Z,15.41
2019-05-19T06:38:37.057Z,15.24
2019-05-19T06:39:36.980Z,15.21
2019-05-19T06:40:36.905Z,15.35
2019-05-19T06:41:36.830Z,15.31
2019-05-19T06:42:36.760Z,15.39
2019-05-19T06:43:36.683Z,15.33
2019-05-19T06:44:36.612Z,15.45
2019-05-19T06:45:36.570Z,15.43
2019-05-19T06:46:36.464Z,15.26
2019-05-19T06:47:36.395Z,15.38
2019-05-19T06:48:36.317Z,15.38
2019-05-19T06:49:36.242Z,15.43
2019-05-19T06:50:40.234Z,15.51
2019-05-19T06:51:36.096Z,15.66
2019-05-19T06:52:36.024Z,15.64
2019-05-19T06:53:35.952Z,15.67
2019-05-19T06:54:35.878Z,15.86
2019-05-19T06:55:35.804Z,15.96
2019-05-19T06:56:35.780Z,15.99
2019-05-19T06:57:35.658Z,16.15
2019-05-19T06:58:35.584Z,16.14
2019-05-19T06:59:35.513Z,16.18
2019-05-19T07:00:35.436Z,16.15
2019-05-19T07:01:35.362Z,16.25
2019-05-19T07:02:35.289Z,16.18
2019-05-19T07:03:35.215Z,16.20
2019-05-19T07:04:35.142Z,16.12
2019-05-19T07:05:35.071Z,16.25
2019-05-19T07:06:34.997Z,16.35
2019-05-19T07:07:34.923Z,16.33
2019-05-19T07:08:34.862Z,16.27
2019-05-19T07:09:34.785Z,16.30
2019-05-19T07:10:34.804Z,16.34
2019-05-19T07:11:34.637Z,16.42
2019-05-19T07:12:34.558Z,16.62
2019-05-19T07:13:34.489Z,16.40
2019-05-19T07:14:34.411Z,16.42
2019-05-19T07:15:34.340Z,16.48
2019-05-19T07:16:34.264Z,16.29
2019-05-19T07:17:34.215Z,16.34
2019-05-19T07:18:34.127Z,16.29
2019-05-19T07:19:34.047Z,16.27
2019-05-19T07:20:33.976Z,16.37
2019-05-19T07:21:33.902Z,16.44
2019-05-19T07:22:37.437Z,16.60
2019-05-19T07:23:33.758Z,16.73
2019-05-19T07:24:33.682Z,16.81
2019-05-19T07:25:33.616Z,16.88
2019-05-19T07:26:33.535Z,16.93
2019-05-19T07:27:33.462Z,16.96
2019-05-19T07:28:33.390Z,16.88
2019-05-19T07:29:33.316Z,16.90
2019-05-19T07:30:33.245Z,16.71
2019-05-19T07:31:33.170Z,16.74
2019-05-19T07:32:33.101Z,16.74
2019-05-19T07:33:33.029Z,16.77
2019-05-19T07:34:32.966Z,16.96
2019-05-19T07:35:32.905Z,17.02
2019-05-19T07:36:32.806Z,17.11
2019-05-19T07:37:32.741Z,17.08
2019-05-19T07:38:32.660Z,17.11
2019-05-19T07:39:32.591Z,17.10
2019-05-19T07:40:32.514Z,17.15
2019-05-19T07:41:32.442Z,17.23
2019-05-19T07:42:32.369Z,17.20
2019-05-19T07:43:32.306Z,17.30
2019-05-19T07:44:32.223Z,17.18
2019-05-19T07:45:32.151Z,17.17
2019-05-19T07:46:32.081Z,17.11
2019-05-19T07:47:32.006Z,16.92
2019-05-19T07:48:31.933Z,16.84
2019-05-19T07:49:31.861Z,16.95
2019-05-19T07:50:31.791Z,17.10
2019-05-19T07:51:31.714Z,17.17
2019-05-19T07:52:31.649Z,17.05
2019-05-19T07:53:42.605Z,17.14
2019-05-19T07:54:31.500Z,17.32
2019-05-19T07:55:31.425Z,17.55
2019-05-19T07:56:31.353Z,17.67
2019-05-19T07:57:31.284Z,17.67
2019-05-19T07:58:31.207Z,17.60
2019-05-19T07:59:31.134Z,17.66
2019-05-19T08:00:31.150Z,17.51
2019-05-19T08:01:30.990Z,17.57
2019-05-19T08:02:30.923Z,17.70
2019-05-19T08:03:30.845Z,17.66
2019-05-19T08:04:30.808Z,17.70
2019-05-19T08:05:30.701Z,17.70
2019-05-19T08:06:30.728Z,17.71
2019-05-19T08:07:30.554Z,17.74
2019-05-19T08:08:30.483Z,17.76
2019-05-19T08:09:30.411Z,17.71
2019-05-19T08:10:30.337Z,17.84
2019-05-19T08:11:30.266Z,18.00
2019-05-19T08:12:30.246Z,18.09
2019-05-19T08:13:30.122Z,18.07
2019-05-19T08:14:30.057Z,17.98
2019-05-19T08:15:29.977Z,17.95
2019-05-19T08:16:29.909Z,17.94
2019-05-19T08:17:29.893Z,17.82
2019-05-19T08:18:29.763Z,17.74
2019-05-19T08:19:29.688Z,17.69
2019-05-19T08:20:29.618Z,17.69
2019-05-19T08:21:29.545Z,17.66
2019-05-19T08:22:29.472Z,17.60
2019-05-19T08:23:29.447Z,17.70
2019-05-19T08:24:29.328Z,17.82
2019-05-19T08:25:29.262Z,17.88
2019-05-19T08:26:29.184Z,18.03
2019-05-19T08:27:29.110Z,18.06
2019-05-19T08:28:29.037Z,18.02
2019-05-19T08:29:28.970Z,18.00
2019-05-19T08:30:29.002Z,17.98
2019-05-19T08:31:28.848Z,18.13
2019-05-19T08:32:28.750Z,18.16
2019-05-19T08:33:28.773Z,18.31
2019-05-19T08:34:28.604Z,18.28
2019-05-19T08:35:28.533Z,18.37
2019-05-19T08:36:28.461Z,18.16
2019-05-19T08:37:28.389Z,18.21
2019-05-19T08:38:28.318Z,18.32
2019-05-19T08:39:28.243Z,18.31
2019-05-19T08:40:28.173Z,18.29
2019-05-19T08:41:28.103Z,18.39
2019-05-19T08:42:28.122Z,18.44
2019-05-19T08:43:27.958Z,18.50
2019-05-19T08:44:27.886Z,18.59
2019-05-19T08:45:27.865Z,18.50
2019-05-19T08:46:27.743Z,18.57
2019-05-19T08:47:27.669Z,18.58
2019-05-19T08:48:27.603Z,18.50
2019-05-19T08:49:27.537Z,18.55
2019-05-19T08:50:27.453Z,18.67
2019-05-19T08:51:27.380Z,18.83
2019-05-19T08:52:27.311Z,18.62
2019-05-19T08:53:27.236Z,18.55
2019-05-19T08:54:27.166Z,18.77
2019-05-19T08:55:27.092Z,18.89
2019-05-19T08:56:27.020Z,18.94
2019-05-19T08:57:26.949Z,18.95
2019-05-19T08:58:26.879Z,19.06
2019-05-19T08:59:26.805Z,19.18
2019-05-19T09:00:26.735Z,19.17
2019-05-19T09:01:26.662Z,19.11
2019-05-19T09:02:26.591Z,18.99
2019-05-19T09:03:26.523Z,18.98
2019-05-19T09:04:26.448Z,18.94
2019-05-19T09:05:26.375Z,18.98
2019-05-19T09:06:26.304Z,19.11
2019-05-19T09:07:26.234Z,19.01
2019-05-19T09:08:26.161Z,18.92
2019-05-19T09:09:26.096Z,18.90
2019-05-19T09:10:26.069Z,18.80
2019-05-19T09:11:25.947Z,18.99
2019-05-19T09:12:25.875Z,18.97
2019-05-19T09:13:25.803Z,18.94
2019-05-19T09:14:25.739Z,19.01
2019-05-19T09:15:25.661Z,19.11
2019-05-19T09:16:25.591Z,19.33
2019-05-19T09:17:25.518Z,19.40
2019-05-19T09:18:25.447Z,19.50
2019-05-19T09:19:25.374Z,19.46
2019-05-19T09:20:25.311Z,19.35
2019-05-19T09:21:25.285Z,19.21
2019-05-19T09:22:25.162Z,19.18
2019-05-19T09:23:25.090Z,19.21
2019-05-19T09:24:30.491Z,19.35
2019-05-19T09:25:24.947Z,19.39
2019-05-19T09:26:24.878Z,19.46
2019-05-19T09:27:24.804Z,19.60
2019-05-19T09:28:24.731Z,19.58
2019-05-19T09:29:24.661Z,19.63
2019-05-19T09:30:24.590Z,19.68
2019-05-19T09:31:24.524Z,19.69
2019-05-19T09:32:24.447Z,19.73
2019-05-19T09:33:24.376Z,19.73
2019-05-19T09:34:24.308Z,19.76
2019-05-19T09:35:24.237Z,19.90
2019-05-19T09:36:24.175Z,19.94
2019-05-19T09:37:24.093Z,19.72
2019-05-19T09:38:24.021Z,19.78
2019-05-19T09:39:23.949Z,19.90
2019-05-19T09:40:26.635Z,20.06
2019-05-19T09:41:23.810Z,20.09
2019-05-19T09:42:23.740Z,19.71
2019-05-19T09:43:23.666Z,19.78
2019-05-19T09:44:23.595Z,19.87
2019-05-19T09:45:23.524Z,20.01
2019-05-19T09:46:23.455Z,20.09
2019-05-19T09:47:23.383Z,20.16
2019-05-19T09:48:23.314Z,20.16
2019-05-19T09:49:23.244Z,20.24
2019-05-19T09:50:23.172Z,20.08
2019-05-19T09:51:23.100Z,20.16
2019-05-19T09:52:23.031Z,20.09
2019-05-19T09:53:22.961Z,19.90
2019-05-19T09:54:22.891Z,19.76
2019-05-19T09:55:22.899Z,19.71
2019-05-19T09:56:22.754Z,19.73
2019-05-19T09:57:22.678Z,19.76
2019-05-19T09:58:22.612Z,19.91
2019-05-19T09:59:22.539Z,20.10
2019-05-19T10:00:22.518Z,20.33
2019-05-19T10:01:22.398Z,20.40
2019-05-19T10:02:22.327Z,20.47
2019-05-19T10:03:22.256Z,20.49
2019-05-19T10:04:22.187Z,20.42
2019-05-19T10:05:22.114Z,20.54
2019-05-19T10:06:22.045Z,20.56
2019-05-19T10:07:21.974Z,20.38
2019-05-19T10:08:21.904Z,20.27
2019-05-19T10:09:21.835Z,20.46
2019-05-19T10:10:21.766Z,20.65
2019-05-19T10:11:21.705Z,20.69
2019-05-19T10:12:21.723Z,20.80
2019-05-19T10:13:21.554Z,20.87
2019-05-19T10:14:21.489Z,20.84
2019-05-19T10:15:21.413Z,20.89
2019-05-19T10:16:21.343Z,20.93
2019-05-19T10:17:21.274Z,20.75
2019-05-19T10:18:21.205Z,20.72
2019-05-19T10:19:21.132Z,20.69
2019-05-19T10:20:21.064Z,20.83
2019-05-19T10:21:20.996Z,20.79
2019-05-19T10:22:20.925Z,20.80
2019-05-19T10:23:20.855Z,20.87
2019-05-19T10:24:20.787Z,20.79
2019-05-19T10:25:22.498Z,20.54
2019-05-19T10:26:20.645Z,20.64
2019-05-19T10:27:21.766Z,20.86
2019-05-19T10:28:20.505Z,20.90
2019-05-19T10:29:20.436Z,20.87
2019-05-19T10:30:20.366Z,20.91
2019-05-19T10:31:20.296Z,20.89
2019-05-19T10:32:20.226Z,20.98
2019-05-19T10:33:20.156Z,20.91
2019-05-19T10:34:20.087Z,20.91
2019-05-19T10:35:20.017Z,20.96
2019-05-19T10:36:19.948Z,20.93
2019-05-19T10:37:19.878Z,21.08
2019-05-19T10:38:19.808Z,21.12
2019-05-19T10:39:19.738Z,21.23
2019-05-19T10:40:19.667Z,21.24
2019-05-19T10:41:19.599Z,21.19
2019-05-19T10:42:19.530Z,21.29
2019-05-19T10:43:19.459Z,21.53
2019-05-19T10:44:19.396Z,21.51
2019-05-19T10:45:19.321Z,21.48
2019-05-19T10:46:19.254Z,21.39
2019-05-19T10:47:19.182Z,21.17
2019-05-19T10:48:19.113Z,21.08
2019-05-19T10:49:19.043Z,21.24
2019-05-19T10:50:18.975Z,21.24
2019-05-19T10:51:18.906Z,21.04
2019-05-19T10:52:18.852Z,20.90
2019-05-19T10:53:18.767Z,21.06
2019-05-19T10:54:18.734Z,21.14
2019-05-19T10:55:18.628Z,21.24
2019-05-19T10:56:19.196Z,21.29
2019-05-19T10:57:18.489Z,21.16
2019-05-19T10:58:18.450Z,21.20
2019-05-19T10:59:18.350Z,21.26
2019-05-19T11:00:18.338Z,21.30
2019-05-19T11:01:18.212Z,21.41
2019-05-19T11:02:18.144Z,21.44
2019-05-19T11:03:18.075Z,21.51
2019-05-19T11:04:18.007Z,21.60
2019-05-19T11:05:17.941Z,21.67
2019-05-19T11:06:17.867Z,21.59
2019-05-19T11:07:17.803Z,21.66
2019-05-19T11:08:17.730Z,21.53
2019-05-19T11:09:17.663Z,21.51
2019-05-19T11:10:17.591Z,21.45
2019-05-19T11:11:17.522Z,21.46
2019-05-19T11:14:53.125Z,21.74
2019-05-19T11:15:53.054Z,21.59
2019-05-19T11:16:52.985Z,21.82
2019-05-19T11:17:52.917Z,21.57
2019-05-19T11:18:52.845Z,21.45
2019-05-19T11:19:52.827Z,21.53
2019-05-19T11:20:52.705Z,21.63
2019-05-19T11:21:52.635Z,21.82
2019-05-19T11:22:52.565Z,21.82
2019-05-19T11:23:52.496Z,22.12
2019-05-19T11:24:52.473Z,22.30
2019-05-19T11:25:52.361Z,22.10
2019-05-19T11:26:52.287Z,22.52
2019-05-19T11:27:52.218Z,22.57
2019-05-19T11:28:52.148Z,22.62
2019-05-19T11:29:52.087Z,22.65
2019-05-19T11:30:52.008Z,22.74
2019-05-19T11:31:51.940Z,23.00
2019-05-19T11:32:51.870Z,23.00
2019-05-19T11:33:51.800Z,23.17
2019-05-19T11:35:51.659Z,23.20
2019-05-19T11:36:51.592Z,23.09
2019-05-19T11:37:51.522Z,22.94
2019-05-19T11:38:51.451Z,22.93
2019-05-19T11:39:51.384Z,23.00
2019-05-19T11:40:51.315Z,22.75
2019-05-19T11:41:51.248Z,23.08
2019-05-19T11:42:51.180Z,23.20
2019-05-19T11:43:51.212Z,23.29
2019-05-19T11:44:51.045Z,23.40
2019-05-19T11:45:50.979Z,23.78
2019-05-19T11:46:50.911Z,23.80
2019-05-19T11:47:50.859Z,23.82
2019-05-19T11:48:50.781Z,23.92
2019-05-19T11:49:50.725Z,23.23
2019-05-19T11:50:50.643Z,23.37
2019-05-19T11:51:50.583Z,22.99
2019-05-19T11:52:50.511Z,23.11
2019-05-19T11:53:50.446Z,23.52
2019-05-19T11:54:50.381Z,23.53
2019-05-19T11:55:50.315Z,23.46
2019-05-19T11:56:50.267Z,23.82
2019-05-19T11:57:51.493Z,24.38
2019-05-19T11:58:52.763Z,24.83
2019-05-19T11:59:52.667Z,25.08
2019-05-19T12:00:53.413Z,25.20
2019-05-19T12:03:49.785Z,25.46
2019-05-19T12:04:49.721Z,25.15
2019-05-19T12:05:49.656Z,25.49
2019-05-19T12:06:49.591Z,25.68
2019-05-19T12:07:49.534Z,26.31
2019-05-19T12:09:31.963Z,25.97
2019-05-19T12:10:31.901Z,26.28
2019-05-19T12:11:31.832Z,26.47
2019-05-19T12:12:31.769Z,26.94
2019-05-19T12:13:34.805Z,26.99
2019-05-19T12:19:32.268Z,27.77
2019-05-19T12:20:32.204Z,26.95
2019-05-19T12:23:49.610Z,27.32
2019-05-19T12:24:49.551Z,27.88
2019-05-19T12:25:49.491Z,27.58
2019-05-19T12:28:58.446Z,27.67
2019-05-19T12:29:57.376Z,27.83
2019-05-19T12:30:57.319Z,28.16
2019-05-19T12:32:59.295Z,28.35
2019-05-19T12:33:57.173Z,28.34
2019-05-19T12:34:57.081Z,28.22
2019-05-19T12:35:57.022Z,28.29
2019-05-19T12:36:56.971Z,27.82
2019-05-19T12:37:56.903Z,27.67
2019-05-19T12:39:56.786Z,28.32
2019-05-19T12:40:56.725Z,28.07
2019-05-19T12:41:56.667Z,28.43
2019-05-19T12:42:56.609Z,28.54
2019-05-19T12:43:56.553Z,28.57
2019-05-19T12:44:56.596Z,28.83
2019-05-19T12:45:56.447Z,29.26
2019-05-19T12:46:56.378Z,29.65
2019-05-19T12:47:56.321Z,29.73
2019-05-19T12:48:56.271Z,30.15
2019-05-19T12:49:56.206Z,30.11
2019-05-19T12:50:56.150Z,29.97
2019-05-19T12:51:56.093Z,29.92
2019-05-19T12:52:56.034Z,28.53
2019-05-19T12:53:55.979Z,28.20
2019-05-19T12:54:55.945Z,28.32
2019-05-19T12:55:55.866Z,28.29
2019-05-19T12:56:55.809Z,28.66
2019-05-19T12:57:55.753Z,27.98
2019-05-19T12:58:55.696Z,26.82
2019-05-19T12:59:55.641Z,25.78
2019-05-19T13:00:55.583Z,24.95
2019-05-19T13:01:55.529Z,24.86
2019-05-19T13:02:55.468Z,24.79
2019-05-19T13:03:55.409Z,24.34
2019-05-19T13:05:05.172Z,24.30
2019-05-19T13:05:55.293Z,24.47
2019-05-19T13:06:55.230Z,24.71
2019-05-19T13:07:55.187Z,24.80
2019-05-19T13:08:55.148Z,24.91
2019-05-19T13:09:55.052Z,25.02
2019-05-19T13:10:54.990Z,25.01
2019-05-19T13:11:54.928Z,24.75